To NAV CANADA Home Page Login to a new session Search on AWWS site Feedback and Comments Disclaimer Vers la page française équivalente Tips FAQ What's new on the site To the Forecasts and Observations / NOTAM section To "File a Flight Plan" website Publications and other links Update of the User's profile FIC Telephone Numbers My Weather Data Folder Route Weather Data Regional Weather Data Local Weather Data To the Forecasts and Observations / NOTAM section
Request Generated 12/10/2016 at 16:34:03 UTC . Weather information available at that time is displayed.

METAR/TAF

ST. ANTHONY/NL    (show WxCam)

METAR CYAY 101600Z AUTO 27017G24KT 9SM OVC033 M05/M09 A2939 RMK ICG
SLP957=
METAR CYAY 101500Z AUTO 27017KT 9SM FEW031 BKN046 OVC060 M04/M08
A2938 RMK ICG SLP954=
SPECI CYAY 101444Z AUTO 25013G20KT 9SM OVC041 M05/M07 A2938 RMK ICG
SLP954=
SPECI CYAY 101421Z AUTO 25014G19KT 6SM -SN BKN033 OVC043 M05/M07
A2938 RMK ICG SLP954=
SPECI CYAY 101411Z AUTO 24015G20KT 3SM -SN OVC027 M05/M07 A2938 RMK
ICG INTMT SLP953=
METAR CYAY 101400Z AUTO 24015G21KT 2 1/4SM -SN OVC025 M05/M07 A2938
RMK ICG SLP953=

TAF CYAY 101339Z 1014/1102 25015G25KT 2SM -SN BLSN OVC015 TEMPO
1014/1020 6SM -SN OVC025
BECMG 1014/1016 27020G30KT
FM102000 27020G30KT P6SM -SN OVC025 TEMPO 1020/1024 21/2SM -SN
OVC020
FM110000 26020G30KT P6SM SCT025
RMK FCST BASED ON AUTO OBS. NXT FCST BY 102000Z=
Your time UTC time
Weather data provided by Environment Canada and NAV CANADA